createdAt,value
2022-08-07T00:01:43.687Z,47.59
2022-08-07T00:04:40.857Z,47.25
2022-08-07T00:07:44.984Z,47.79
2022-08-07T00:10:58.263Z,47.48
2022-08-07T00:14:01.668Z,47.38
2022-08-07T00:17:04.804Z,47.71
2022-08-07T00:20:10.525Z,48.00
2022-08-07T00:23:21.349Z,48.23
2022-08-07T00:26:49.389Z,47.99
2022-08-07T00:29:46.913Z,48.49
2022-08-07T00:32:50.052Z,48.57
2022-08-07T00:35:53.063Z,48.77
2022-08-07T00:38:57.129Z,49.00
2022-08-07T00:42:05.144Z,49.14
2022-08-07T00:45:10.232Z,49.36
2022-08-07T00:48:19.552Z,49.50
2022-08-07T00:51:27.937Z,49.94
2022-08-07T00:54:53.962Z,50.07
2022-08-07T00:57:57.624Z,50.06
2022-08-07T01:01:00.495Z,50.35
2022-08-07T01:04:07.317Z,50.08
2022-08-07T01:07:10.697Z,50.44
2022-08-07T01:10:15.298Z,50.57
2022-08-07T01:13:21.716Z,50.84
2022-08-07T01:16:30.463Z,50.75
2022-08-07T01:19:34.780Z,50.92
2022-08-07T01:23:00.516Z,51.47
2022-08-07T01:26:06.352Z,51.72
2022-08-07T01:29:09.688Z,51.69
2022-08-07T01:32:13.742Z,51.69
2022-08-07T01:35:17.419Z,51.51
2022-08-07T01:38:24.812Z,51.75
2022-08-07T01:41:29.657Z,51.64
2022-08-07T01:44:35.661Z,51.92
2022-08-07T01:48:19.127Z,51.81
2022-08-07T01:51:24.509Z,51.58
2022-08-07T01:54:33.018Z,51.74
2022-08-07T01:58:06.847Z,51.46
2022-08-07T02:01:25.404Z,51.28
2022-08-07T02:04:52.410Z,51.11
2022-08-07T02:08:02.249Z,51.36
2022-08-07T02:11:08.604Z,51.34
2022-08-07T02:14:36.001Z,51.52
2022-08-07T02:17:40.542Z,51.37
2022-08-07T02:20:48.693Z,51.32
2022-08-07T02:23:55.176Z,51.71
2022-08-07T02:27:02.975Z,51.77
2022-08-07T02:30:08.672Z,51.97
2022-08-07T02:33:13.491Z,51.70
2022-08-07T02:36:28.644Z,52.05
2022-08-07T02:39:43.097Z,52.01
2022-08-07T02:42:49.712Z,51.93
2022-08-07T02:45:58.956Z,52.06
2022-08-07T02:49:05.782Z,52.05
2022-08-07T02:52:12.892Z,52.09
2022-08-07T02:55:27.517Z,52.03
2022-08-07T02:58:47.089Z,51.88
2022-08-07T03:01:52.212Z,51.77
2022-08-07T03:05:05.202Z,52.10
2022-08-07T03:08:10.586Z,51.94
2022-08-07T03:11:15.148Z,52.18
2022-08-07T03:14:22.600Z,52.10
2022-08-07T03:17:26.376Z,52.28
2022-08-07T03:20:30.683Z,52.54
2022-08-07T03:24:19.559Z,52.70
2022-08-07T03:27:01.580Z,52.97
2022-08-07T03:30:08.566Z,52.93
2022-08-07T03:33:14.756Z,52.65
2022-08-07T03:36:20.090Z,52.80
2022-08-07T03:39:46.069Z,52.95
2022-08-07T03:42:54.152Z,52.69
2022-08-07T03:46:00.149Z,53.23
2022-08-07T03:49:05.942Z,53.19
2022-08-07T03:52:22.795Z,53.28
2022-08-07T03:55:48.715Z,53.43
2022-08-07T03:59:07.114Z,53.52
2022-08-07T04:02:14.966Z,53.49
2022-08-07T04:05:28.682Z,53.45
2022-08-07T04:08:44.376Z,53.69
2022-08-07T04:12:20.690Z,53.77
2022-08-07T04:15:16.802Z,53.85
2022-08-07T04:18:58.500Z,53.97
2022-08-07T04:21:48.070Z,54.11
2022-08-07T04:25:02.649Z,54.21
2022-08-07T04:28:06.418Z,54.12
2022-08-07T04:31:19.672Z,54.17
2022-08-07T04:34:32.879Z,53.96
2022-08-07T04:37:52.697Z,54.15
2022-08-07T04:40:59.603Z,54.18
2022-08-07T04:44:12.819Z,54.08
2022-08-07T04:48:01.615Z,54.01
2022-08-07T04:51:09.153Z,53.86
2022-08-07T04:54:22.859Z,54.39
2022-08-07T04:58:27.315Z,54.48
2022-08-07T05:01:15.768Z,54.21
2022-08-07T05:04:29.136Z,54.22
2022-08-07T05:07:48.176Z,54.21
2022-08-07T05:11:02.853Z,54.35
2022-08-07T05:14:52.970Z,54.25
2022-08-07T05:17:51.899Z,54.17
2022-08-07T05:21:00.303Z,53.85
2022-08-07T05:24:07.756Z,53.66
2022-08-07T05:28:01.862Z,53.47
2022-08-07T05:30:39.841Z,53.20
2022-08-07T05:34:00.929Z,52.67
2022-08-07T05:37:08.853Z,52.67
2022-08-07T05:40:19.277Z,52.74
2022-08-07T05:43:49.611Z,52.37
2022-08-07T05:46:51.253Z,52.64
2022-08-07T05:49:55.469Z,52.00
2022-08-07T05:52:58.611Z,49.79
2022-08-07T05:56:05.934Z,46.91
2022-08-07T05:59:16.274Z,44.34
2022-08-07T06:02:28.463Z,41.88
2022-08-07T06:05:32.277Z,40.46
2022-08-07T06:08:39.183Z,39.34
2022-08-07T06:11:47.114Z,38.51
2022-08-07T06:14:50.799Z,37.86
2022-08-07T06:17:55.222Z,37.23
2022-08-07T06:22:15.599Z,36.60
2022-08-07T06:24:45.663Z,36.30
2022-08-07T06:28:01.061Z,35.42
2022-08-07T06:31:04.788Z,34.79
2022-08-07T06:34:08.912Z,34.31
2022-08-07T06:37:17.220Z,33.69
2022-08-07T06:40:23.483Z,32.80
2022-08-07T06:43:40.138Z,33.13
2022-08-07T06:46:53.315Z,32.66
2022-08-07T06:50:04.033Z,33.04
2022-08-07T06:53:18.535Z,33.40
2022-08-07T06:56:49.394Z,33.53
2022-08-07T07:00:11.806Z,34.11
2022-08-07T07:03:26.360Z,34.18
2022-08-07T07:07:00.297Z,34.15
2022-08-07T07:10:05.278Z,34.00
2022-08-07T07:13:13.587Z,34.25
2022-08-07T07:16:23.175Z,33.67
2022-08-07T07:19:57.375Z,33.47
2022-08-07T07:24:10.105Z,33.13
2022-08-07T07:26:32.658Z,33.06
2022-08-07T07:30:08.999Z,32.46
2022-08-07T07:33:12.284Z,32.19
2022-08-07T07:36:17.375Z,31.84
2022-08-07T07:39:22.654Z,31.51
2022-08-07T07:42:33.248Z,30.98
2022-08-07T07:46:53.418Z,30.72
2022-08-07T07:49:08.908Z,30.90
2022-08-07T07:52:28.094Z,30.67
2022-08-07T07:55:37.487Z,30.90
2022-08-07T07:58:42.339Z,30.90
2022-08-07T08:02:01.529Z,30.53
2022-08-07T08:05:14.442Z,30.78
2022-08-07T08:08:35.708Z,31.76
2022-08-07T08:11:59.780Z,32.14
2022-08-07T08:15:06.961Z,32.20
2022-08-07T08:18:17.849Z,32.32
2022-08-07T08:22:00.772Z,33.22
2022-08-07T08:25:27.013Z,34.14
2022-08-07T08:28:46.657Z,34.61
2022-08-07T08:32:16.930Z,34.83
2022-08-07T08:35:16.390Z,35.19
2022-08-07T08:38:29.547Z,35.41
2022-08-07T08:41:58.314Z,35.23
2022-08-07T08:45:13.421Z,35.53
2022-08-07T08:48:28.560Z,34.69
2022-08-07T08:52:12.627Z,35.27
2022-08-07T08:55:12.153Z,35.44
2022-08-07T08:58:33.068Z,35.41
2022-08-07T09:01:49.037Z,35.18
2022-08-07T09:04:59.036Z,35.37
2022-08-07T09:08:17.964Z,34.80
2022-08-07T09:11:50.432Z,35.00
2022-08-07T09:16:20.466Z,34.98
2022-08-07T09:18:53.443Z,34.10
2022-08-07T09:24:29.183Z,34.58
2022-08-07T09:25:54.418Z,34.64
2022-08-07T09:30:00.661Z,34.84
2022-08-07T09:32:54.260Z,34.67
2022-08-07T09:36:05.836Z,34.05
2022-08-07T09:39:52.935Z,33.57
2022-08-07T09:42:53.655Z,33.07
2022-08-07T09:47:24.104Z,32.44
2022-08-07T09:50:01.711Z,33.00
2022-08-07T09:53:10.057Z,32.93
2022-08-07T09:56:47.703Z,33.19
2022-08-07T10:00:08.198Z,32.25
2022-08-07T10:04:05.777Z,32.30
2022-08-07T10:07:39.887Z,32.21
2022-08-07T10:11:16.699Z,32.72
2022-08-07T10:14:30.356Z,31.96
2022-08-07T10:18:02.604Z,31.67
2022-08-07T10:22:12.294Z,31.61
2022-08-07T10:25:04.973Z,32.01
2022-08-07T10:28:23.620Z,31.81
2022-08-07T10:31:42.991Z,30.64
2022-08-07T10:35:09.120Z,30.26
2022-08-07T10:38:48.029Z,29.97
2022-08-07T10:42:09.693Z,29.82
2022-08-07T10:45:48.016Z,29.84
2022-08-07T10:49:00.325Z,30.01
2022-08-07T10:52:13.159Z,29.69
2022-08-07T10:55:37.300Z,29.74
2022-08-07T10:58:59.770Z,29.93
2022-08-07T11:02:33.027Z,29.32
2022-08-07T11:05:50.760Z,29.34
2022-08-07T11:08:59.743Z,29.90
2022-08-07T11:12:12.508Z,29.88
2022-08-07T11:15:31.538Z,29.46
2022-08-07T11:18:39.084Z,29.77
2022-08-07T11:21:48.139Z,29.84
2022-08-07T11:24:58.709Z,29.07
2022-08-07T11:28:17.512Z,28.30
2022-08-07T11:31:34.918Z,28.55
2022-08-07T11:34:46.248Z,28.49
2022-08-07T11:38:10.278Z,28.47
2022-08-07T11:41:28.307Z,29.30
2022-08-07T11:44:57.613Z,29.23
2022-08-07T11:48:32.106Z,29.28
2022-08-07T11:51:51.920Z,27.54
2022-08-07T11:55:07.382Z,27.46
2022-08-07T11:58:38.326Z,27.72
2022-08-07T12:02:00.751Z,27.57
2022-08-07T12:05:15.302Z,27.52
2022-08-07T12:08:35.995Z,27.35
2022-08-07T12:12:10.267Z,27.21
2022-08-07T12:15:17.420Z,27.11
2022-08-07T12:18:46.421Z,26.73
2022-08-07T12:22:37.603Z,26.96
2022-08-07T12:26:21.777Z,26.77
2022-08-07T12:29:20.316Z,26.97
2022-08-07T12:32:44.788Z,27.42
2022-08-07T12:35:57.923Z,27.52
2022-08-07T12:39:38.830Z,27.20
2022-08-07T12:42:32.155Z,26.28
2022-08-07T12:45:52.567Z,26.58
2022-08-07T12:49:09.775Z,25.97
2022-08-07T12:52:46.254Z,26.37
2022-08-07T12:56:03.414Z,26.08
2022-08-07T12:59:09.393Z,25.34
2022-08-07T13:02:58.025Z,25.89
2022-08-07T13:06:21.666Z,25.08
2022-08-07T13:10:37.326Z,24.81
2022-08-07T13:13:48.409Z,25.47
2022-08-07T13:16:56.112Z,25.56
2022-08-07T13:20:08.674Z,25.45
2022-08-07T13:24:03.870Z,24.71
2022-08-07T13:26:47.038Z,25.12
2022-08-07T13:29:56.440Z,25.17
2022-08-07T13:33:16.386Z,24.75
2022-08-07T13:36:40.484Z,25.06
2022-08-07T13:40:36.187Z,24.89
2022-08-07T13:43:16.351Z,24.26
2022-08-07T13:46:24.893Z,24.17
2022-08-07T13:50:33.936Z,24.04
2022-08-07T13:53:00.567Z,23.82
2022-08-07T13:56:04.907Z,24.11
2022-08-07T13:59:15.733Z,24.13
2022-08-07T14:02:32.169Z,24.39
2022-08-07T14:05:49.313Z,24.48
2022-08-07T14:08:59.479Z,24.16
2022-08-07T14:12:10.806Z,24.36
2022-08-07T14:15:32.128Z,23.93
2022-08-07T14:18:49.760Z,23.54
2022-08-07T14:22:10.771Z,23.35
2022-08-07T14:25:18.645Z,23.29
2022-08-07T14:28:55.980Z,23.35
2022-08-07T14:31:56.075Z,23.51
2022-08-07T14:35:04.116Z,23.60
2022-08-07T14:38:09.491Z,23.16
2022-08-07T14:41:33.984Z,23.53
2022-08-07T14:45:22.372Z,23.60
2022-08-07T14:48:33.332Z,23.58
2022-08-07T14:52:04.530Z,24.26
2022-08-07T14:55:03.877Z,23.89
2022-08-07T14:58:08.873Z,23.31
2022-08-07T15:01:42.808Z,23.63
2022-08-07T15:04:56.363Z,23.48
2022-08-07T15:08:08.768Z,22.98
2022-08-07T15:11:16.851Z,23.00
2022-08-07T15:14:57.644Z,23.71
2022-08-07T15:18:05.830Z,23.75
2022-08-07T15:21:45.071Z,23.77
2022-08-07T15:25:15.253Z,23.43
2022-08-07T15:28:34.616Z,23.64
2022-08-07T15:31:57.758Z,23.70
2022-08-07T15:35:06.620Z,23.56
2022-08-07T15:38:17.665Z,23.39
2022-08-07T15:42:43.933Z,23.52
2022-08-07T15:45:09.410Z,23.60
2022-08-07T15:48:23.008Z,23.61
2022-08-07T15:54:56.828Z,23.51
2022-08-07T15:58:08.552Z,23.41
2022-08-07T16:01:20.339Z,24.08
2022-08-07T16:04:29.817Z,23.64
2022-08-07T16:08:32.378Z,23.63
2022-08-07T16:11:32.232Z,23.60
2022-08-07T16:15:00.273Z,23.43
2022-08-07T16:18:12.632Z,23.45
2022-08-07T16:22:04.323Z,24.14
2022-08-07T16:25:54.379Z,23.98
2022-08-07T16:29:18.550Z,23.94
2022-08-07T16:32:40.071Z,23.86
2022-08-07T16:36:20.382Z,23.76
2022-08-07T16:39:48.600Z,23.75
2022-08-07T16:43:05.159Z,24.15
2022-08-07T16:47:06.475Z,24.67
2022-08-07T16:50:37.237Z,24.59
2022-08-07T16:54:19.124Z,24.89
2022-08-07T16:58:01.050Z,25.64
2022-08-07T17:01:15.688Z,26.27
2022-08-07T17:04:34.853Z,26.42
2022-08-07T17:07:57.910Z,26.32
2022-08-07T17:11:06.660Z,25.49
2022-08-07T17:14:18.570Z,26.03
2022-08-07T17:17:46.751Z,26.14
2022-08-07T17:20:53.928Z,26.33
2022-08-07T17:24:04.904Z,26.40
2022-08-07T17:27:19.900Z,26.71
2022-08-07T17:30:27.709Z,27.01
2022-08-07T17:33:39.200Z,27.16
2022-08-07T17:37:14.368Z,26.82
2022-08-07T17:40:33.098Z,26.93
2022-08-07T17:44:03.171Z,27.08
2022-08-07T17:47:08.419Z,27.64
2022-08-07T17:50:19.086Z,28.43
2022-08-07T17:54:01.222Z,28.98
2022-08-07T17:57:00.347Z,28.92
2022-08-07T18:00:06.533Z,29.21
2022-08-07T18:03:21.504Z,29.22
2022-08-07T18:06:39.241Z,29.23
2022-08-07T18:10:07.576Z,30.04
2022-08-07T18:13:40.455Z,30.76
2022-08-07T18:16:57.523Z,31.36
2022-08-07T18:21:10.479Z,31.89
2022-08-07T18:23:43.092Z,32.59
2022-08-07T18:27:17.351Z,34.01
2022-08-07T18:30:31.339Z,34.72
2022-08-07T18:33:57.254Z,35.29
2022-08-07T18:37:15.027Z,34.86
2022-08-07T18:40:59.819Z,34.52
2022-08-07T18:44:27.626Z,34.80
2022-08-07T18:47:44.836Z,36.16
2022-08-07T18:51:06.503Z,35.84
2022-08-07T18:54:31.590Z,36.36
2022-08-07T18:57:44.552Z,36.24
2022-08-07T19:01:21.816Z,36.74
2022-08-07T19:04:57.405Z,37.51
2022-08-07T19:08:14.942Z,39.41
2022-08-07T19:11:36.639Z,40.31
2022-08-07T19:15:00.604Z,40.14
2022-08-07T19:18:34.712Z,40.19
2022-08-07T19:21:56.224Z,40.07
2022-08-07T19:26:23.664Z,40.37
2022-08-07T19:30:54.256Z,40.71
2022-08-07T19:32:17.393Z,40.29
2022-08-07T19:35:33.747Z,39.96
2022-08-07T19:38:53.282Z,39.39
2022-08-07T19:42:08.262Z,38.96
2022-08-07T19:46:04.875Z,38.91
2022-08-07T19:48:53.693Z,38.62
2022-08-07T19:52:00.585Z,38.43
2022-08-07T19:55:04.519Z,38.52
2022-08-07T19:58:18.286Z,38.59
2022-08-07T20:01:22.081Z,38.41
2022-08-07T20:04:31.072Z,38.87
2022-08-07T20:07:46.639Z,38.91
2022-08-07T20:14:20.974Z,38.66
2022-08-07T20:17:38.820Z,38.67
2022-08-07T20:20:43.453Z,38.79
2022-08-07T20:23:54.090Z,41.46
2022-08-07T20:27:02.294Z,41.68
2022-08-07T20:30:11.595Z,42.39
2022-08-07T20:33:36.873Z,42.85
2022-08-07T20:36:42.580Z,42.70
2022-08-07T20:40:03.834Z,42.24
2022-08-07T20:43:19.285Z,41.90
2022-08-07T20:46:32.332Z,41.29
2022-08-07T20:50:00.532Z,41.29
2022-08-07T20:53:05.797Z,41.30
2022-08-07T20:56:11.348Z,41.03
2022-08-07T21:00:05.178Z,41.29
2022-08-07T21:03:00.975Z,41.49
2022-08-07T21:06:21.829Z,41.36
2022-08-07T21:09:35.579Z,41.67
2022-08-07T21:13:00.690Z,41.68
2022-08-07T21:16:06.232Z,41.89
2022-08-07T21:19:13.850Z,41.99
2022-08-07T21:22:19.487Z,42.05
2022-08-07T21:25:29.941Z,41.97
2022-08-07T21:28:50.915Z,42.14
2022-08-07T21:32:42.754Z,42.02
2022-08-07T21:35:34.788Z,42.27
2022-08-07T21:39:46.128Z,42.40
2022-08-07T21:42:42.417Z,43.00
2022-08-07T21:46:10.609Z,43.10
2022-08-07T21:49:28.090Z,43.26
2022-08-07T21:52:42.099Z,43.61
2022-08-07T21:55:54.686Z,43.97
2022-08-07T21:59:06.644Z,43.87
2022-08-07T22:02:19.994Z,43.94
2022-08-07T22:05:45.270Z,44.51
2022-08-07T22:08:55.513Z,44.45
2022-08-07T22:12:07.173Z,44.85
2022-08-07T22:16:40.235Z,45.12
2022-08-07T22:18:55.360Z,45.27
2022-08-07T22:22:10.660Z,45.40
2022-08-07T22:25:27.952Z,45.41
2022-08-07T22:28:53.183Z,45.70
2022-08-07T22:32:05.752Z,45.90
2022-08-07T22:35:12.103Z,46.02
2022-08-07T22:38:25.637Z,46.12
2022-08-07T22:42:03.502Z,45.97
2022-08-07T22:45:02.394Z,46.35
2022-08-07T22:48:31.749Z,46.28
2022-08-07T22:51:58.176Z,46.79
2022-08-07T22:55:30.021Z,46.78
2022-08-07T22:58:58.210Z,47.02
2022-08-07T23:02:15.269Z,47.28
2022-08-07T23:06:09.575Z,47.31
2022-08-07T23:10:03.999Z,47.34
2022-08-07T23:12:59.758Z,47.35
2022-08-07T23:16:48.499Z,47.61
2022-08-07T23:20:03.404Z,48.04
2022-08-07T23:24:05.567Z,47.97
2022-08-07T23:27:13.872Z,47.93
2022-08-07T23:30:38.188Z,48.13
2022-08-07T23:34:34.701Z,48.30
2022-08-07T23:38:00.746Z,48.66
2022-08-07T23:41:17.430Z,49.06
2022-08-07T23:44:38.767Z,48.89
2022-08-07T23:48:02.566Z,49.23
2022-08-07T23:51:12.387Z,49.25
2022-08-07T23:54:46.188Z,49.58
2022-08-07T23:57:54.991Z,49.69
